Time;durP1;ratioP1;P1;durP2;ratioP2;P2;SDS_P1;SDS_P2;PMS_P1;PMS_P2;Temp;Humidity;BMP_temperature;BMP_pressure;BME280_temperature;BME280_humidity;BME280_pressure;Samples;Min_cycle;Max_cycle;Signal;HPM_P1;HPM_P2
2021/04/12 00:00:01;;;;;;;5.95;1.25;;;;;;;;;;4987336;28;20482;-58
2021/04/12 00:02:43;;;;;;;2.70;0.80;;;;;;;;;;4986538;28;20053;-53
2021/04/12 00:05:13;;;;;;;3.95;0.90;;;;;;;;;;4978874;28;20069;-57
2021/04/12 00:07:45;;;;;;;2.90;0.85;;;;;;;;;;4988569;28;20073;-59
2021/04/12 00:10:14;;;;;;;2.92;0.98;;;;;;;;;;4988768;28;21315;-57
2021/04/12 00:12:39;;;;;;;5.32;1.00;;;;;;;;;;4986853;28;20658;-55
2021/04/12 00:15:16;;;;;;;3.58;1.10;;;;;;;;;;4988008;28;21075;-57
2021/04/12 00:17:46;;;;;;;2.88;1.00;;;;;;;;;;4973953;28;20039;-56
2021/04/12 00:20:31;;;;;;;3.28;1.00;;;;;;;;;;4984940;28;20064;-57
2021/04/12 00:22:57;;;;;;;5.97;1.20;;;;;;;;;;4975574;28;20046;-54
2021/04/12 00:25:30;;;;;;;3.92;1.00;;;;;;;;;;4988346;28;20152;-59
2021/04/12 00:28:03;;;;;;;4.43;1.17;;;;;;;;;;4989330;28;20907;-59
2021/04/12 00:30:34;;;;;;;4.25;0.93;;;;;;;;;;4988741;28;20049;-59
2021/04/12 00:33:04;;;;;;;2.67;1.00;;;;;;;;;;4988593;28;20050;-59
2021/04/12 00:35:57;;;;;;;3.72;1.23;;;;;;;;;;4987071;28;20125;-59
2021/04/12 00:38:39;;;;;;;2.83;0.98;;;;;;;;;;4986199;28;20077;-57
2021/04/12 00:41:18;;;;;;;3.38;1.20;;;;;;;;;;4988534;28;20050;-57
2021/04/12 00:44:02;;;;;;;3.65;1.02;;;;;;;;;;4965628;28;20036;-57
2021/04/12 00:46:28;;;;;;;2.72;0.90;;;;;;;;;;4987325;28;20069;-59
2021/04/12 00:49:15;;;;;;;3.10;1.13;;;;;;;;;;4987173;28;21254;-55
2021/04/12 00:52:10;;;;;;;7.07;3.63;;;;;;;;;;4966462;28;20042;-60
2021/04/12 00:54:51;;;;;;;6.57;1.13;;;;;;;;;;4969639;28;20042;-57
2021/04/12 00:57:36;;;;;;;3.50;1.20;;;;;;;;;;4988257;28;20046;-59
2021/04/12 01:00:11;;;;;;;3.83;1.08;;;;;;;;;;4986470;28;20043;-58
2021/04/12 01:02:52;;;;;;;3.80;1.60;;;;;;;;;;4986117;28;20710;-58
2021/04/12 01:05:24;;;;;;;6.72;2.63;;;;;;;;;;4971313;28;20092;-58
2021/04/12 01:07:58;;;;;;;3.80;1.00;;;;;;;;;;4992594;28;20108;-59
2021/04/12 01:10:38;;;;;;;3.25;1.08;;;;;;;;;;4960686;28;20061;-59
2021/04/12 01:13:09;;;;;;;2.78;1.00;;;;;;;;;;4991669;28;21335;-59
2021/04/12 01:15:35;;;;;;;3.10;1.40;;;;;;;;;;4980186;28;20137;-57
2021/04/12 01:18:01;;;;;;;6.43;3.65;;;;;;;;;;4990173;28;20034;-57
2021/04/12 01:20:42;;;;;;;5.97;1.80;;;;;;;;;;4992148;28;20144;-57
2021/04/12 01:23:26;;;;;;;5.90;2.72;;;;;;;;;;4994309;28;20076;-59
2021/04/12 01:26:10;;;;;;;5.35;2.22;;;;;;;;;;4992149;28;20057;-59
2021/04/12 01:28:42;;;;;;;7.47;1.60;;;;;;;;;;4992759;28;20172;-58
2021/04/12 01:31:17;;;;;;;3.47;1.30;;;;;;;;;;4994096;28;20057;-57
2021/04/12 01:33:43;;;;;;;3.78;1.00;;;;;;;;;;4994262;28;20045;-58
2021/04/12 01:36:33;;;;;;;9.98;1.60;;;;;;;;;;4991693;28;20034;-59
2021/04/12 01:39:09;;;;;;;4.10;1.30;;;;;;;;;;4993965;28;20093;-55
2021/04/12 01:41:35;;;;;;;3.92;1.30;;;;;;;;;;4992384;28;20872;-58
2021/04/12 01:44:01;;;;;;;3.85;1.25;;;;;;;;;;4992425;28;20046;-58
2021/04/12 01:46:27;;;;;;;6.43;1.52;;;;;;;;;;4989767;28;20138;-59
2021/04/12 01:49:07;;;;;;;3.15;1.33;;;;;;;;;;4989378;28;20034;-60
2021/04/12 01:51:43;;;;;;;3.28;1.25;;;;;;;;;;4988547;28;20049;-59
2021/04/12 01:54:21;;;;;;;5.15;1.88;;;;;;;;;;4992498;28;20049;-57
2021/04/12 01:57:05;;;;;;;3.47;1.38;;;;;;;;;;4990447;28;20048;-60
2021/04/12 01:59:49;;;;;;;3.15;1.30;;;;;;;;;;4989246;28;20522;-59
2021/04/12 02:02:18;;;;;;;4.35;1.33;;;;;;;;;;4989309;28;20042;-59
2021/04/12 02:04:57;;;;;;;7.07;1.40;;;;;;;;;;4991393;28;20053;-57
2021/04/12 02:07:30;;;;;;;6.63;1.45;;;;;;;;;;4990081;28;20169;-60
2021/04/12 02:10:14;;;;;;;9.40;1.42;;;;;;;;;;4969636;28;20137;-60
2021/04/12 02:12:50;;;;;;;7.82;1.88;;;;;;;;;;4990901;28;20042;-59
2021/04/12 02:15:25;;;;;;;7.90;2.13;;;;;;;;;;4990505;28;20045;-59
2021/04/12 02:18:09;;;;;;;7.32;1.52;;;;;;;;;;4990559;28;20034;-59
2021/04/12 02:20:56;;;;;;;5.65;1.33;;;;;;;;;;4990652;28;20107;-59
2021/04/12 02:23:35;;;;;;;3.40;1.30;;;;;;;;;;4990524;28;20049;-59
2021/04/12 02:26:09;;;;;;;9.98;1.70;;;;;;;;;;4990717;28;20046;-60
2021/04/12 02:28:47;;;;;;;3.42;1.30;;;;;;;;;;4991053;28;20042;-59
2021/04/12 02:31:21;;;;;;;11.00;2.00;;;;;;;;;;4990797;28;20715;-61
2021/04/12 02:34:13;;;;;;;3.78;1.50;;;;;;;;;;4990344;28;20179;-58
2021/04/12 02:36:52;;;;;;;6.25;1.63;;;;;;;;;;4990209;28;20073;-58
2021/04/12 02:39:18;;;;;;;8.48;2.05;;;;;;;;;;4990967;28;20041;-59
2021/04/12 02:41:47;;;;;;;5.85;1.70;;;;;;;;;;4992251;28;20057;-56
2021/04/12 02:44:19;;;;;;;6.03;1.65;;;;;;;;;;4994739;28;20056;-59
2021/04/12 02:47:07;;;;;;;3.72;1.63;;;;;;;;;;4960068;28;20676;-57
2021/04/12 02:49:36;;;;;;;5.20;1.60;;;;;;;;;;4957749;28;20043;-55
2021/04/12 02:52:20;;;;;;;7.60;1.52;;;;;;;;;;4956547;28;20138;-59
2021/04/12 02:55:01;;;;;;;6.28;1.90;;;;;;;;;;4954779;28;20053;-56
2021/04/12 02:57:40;;;;;;;4.18;2.00;;;;;;;;;;4955319;28;20080;-58
2021/04/12 03:00:11;;;;;;;8.15;2.10;;;;;;;;;;4957052;28;20031;-57
2021/04/12 03:02:39;;;;;;;6.18;2.20;;;;;;;;;;4954265;28;20311;-55
2021/04/12 03:05:24;;;;;;;4.97;2.10;;;;;;;;;;4955794;28;20031;-57
2021/04/12 03:07:56;;;;;;;6.25;2.00;;;;;;;;;;4954935;28;20055;-56
2021/04/12 03:10:28;;;;;;;7.28;2.47;;;;;;;;;;4954151;28;20046;-54
2021/04/12 03:12:54;;;;;;;4.78;2.47;;;;;;;;;;4957031;28;20045;-56
2021/04/12 03:15:44;;;;;;;5.75;2.05;;;;;;;;;;4955217;28;20043;-56
2021/04/12 03:18:09;;;;;;;6.43;2.30;;;;;;;;;;4955752;28;20454;-57
2021/04/12 03:20:42;;;;;;;7.78;1.95;;;;;;;;;;4946768;28;20102;-58
2021/04/12 03:23:17;;;;;;;4.80;2.17;;;;;;;;;;4939784;28;20050;-58
2021/04/12 03:25:58;;;;;;;10.93;2.30;;;;;;;;;;4985535;28;20038;-57
2021/04/12 03:28:24;;;;;;;6.90;2.53;;;;;;;;;;4985623;28;20054;-56
2021/04/12 03:30:59;;;;;;;7.57;1.90;;;;;;;;;;4987408;28;20076;-60
2021/04/12 03:33:37;;;;;;;5.63;1.85;;;;;;;;;;4987777;28;20398;-59
2021/04/12 03:36:03;;;;;;;6.72;2.10;;;;;;;;;;4988670;28;20750;-59
2021/04/12 03:38:38;;;;;;;4.57;2.55;;;;;;;;;;4988589;28;20038;-58
2021/04/12 03:41:11;;;;;;;5.90;2.70;;;;;;;;;;4987021;28;20088;-56
2021/04/12 03:43:40;;;;;;;8.57;2.70;;;;;;;;;;4984946;28;20077;-57
2021/04/12 03:46:24;;;;;;;6.18;3.00;;;;;;;;;;4990372;28;20041;-59
2021/04/12 03:49:16;;;;;;;6.97;2.80;;;;;;;;;;4988086;28;20495;-57
2021/04/12 03:52:03;;;;;;;4.40;2.40;;;;;;;;;;4965841;28;20042;-58
2021/04/12 03:54:39;;;;;;;4.18;2.30;;;;;;;;;;4986486;28;20034;-58
2021/04/12 03:57:23;;;;;;;4.70;2.10;;;;;;;;;;4989332;28;20652;-60
2021/04/12 03:59:58;;;;;;;4.57;1.70;;;;;;;;;;4987767;28;20044;-58
2021/04/12 04:02:42;;;;;;;3.85;1.70;;;;;;;;;;4989253;28;20081;-57
2021/04/12 04:05:12;;;;;;;4.18;1.95;;;;;;;;;;4988437;28;20057;-56
2021/04/12 04:07:41;;;;;;;6.38;1.73;;;;;;;;;;4988209;28;20053;-58
2021/04/12 04:10:09;;;;;;;3.70;1.90;;;;;;;;;;4987301;28;20060;-57
2021/04/12 04:12:41;;;;;;;4.63;2.00;;;;;;;;;;4987158;28;20045;-56
2021/04/12 04:15:07;;;;;;;5.47;2.00;;;;;;;;;;4988934;28;20099;-60
2021/04/12 04:17:51;;;;;;;4.00;1.70;;;;;;;;;;4987819;28;20039;-57
2021/04/12 04:20:35;;;;;;;6.63;2.25;;;;;;;;;;4983138;28;20060;-59
2021/04/12 04:23:13;;;;;;;7.35;2.30;;;;;;;;;;4988244;28;20396;-59
2021/04/12 04:25:53;;;;;;;4.78;2.03;;;;;;;;;;4978768;28;20049;-56
2021/04/12 04:28:28;;;;;;;5.40;2.15;;;;;;;;;;4996783;28;20057;-57
2021/04/12 04:31:12;;;;;;;7.13;2.10;;;;;;;;;;4985275;28;20041;-58
2021/04/12 04:34:01;;;;;;;5.05;2.10;;;;;;;;;;4986520;28;20042;-57
2021/04/12 04:36:52;;;;;;;5.63;1.88;;;;;;;;;;4940105;28;20374;-60
2021/04/12 04:39:37;;;;;;;4.40;1.80;;;;;;;;;;4991166;28;20175;-58
2021/04/12 04:42:17;;;;;;;4.55;1.70;;;;;;;;;;4992599;28;20053;-59
2021/04/12 04:44:46;;;;;;;4.38;2.20;;;;;;;;;;4991832;28;20599;-58
2021/04/12 04:47:12;;;;;;;6.32;2.47;;;;;;;;;;4991211;28;20096;-60
2021/04/12 04:49:38;;;;;;;5.90;2.47;;;;;;;;;;4991221;28;20050;-59
2021/04/12 04:52:03;;;;;;;6.35;2.85;;;;;;;;;;4991474;28;20680;-57
2021/04/12 04:54:46;;;;;;;8.18;2.75;;;;;;;;;;4992307;28;20046;-57
2021/04/12 04:57:15;;;;;;;4.63;2.93;;;;;;;;;;4995412;28;20042;-56
2021/04/12 04:59:47;;;;;;;5.55;3.08;;;;;;;;;;4989046;28;20531;-60
2021/04/12 05:02:13;;;;;;;7.80;3.65;;;;;;;;;;4993384;28;20096;-58
2021/04/12 05:04:58;;;;;;;8.77;3.80;;;;;;;;;;4990541;28;20120;-56
2021/04/12 05:07:24;;;;;;;6.63;3.30;;;;;;;;;;4991475;28;20050;-58
2021/04/12 05:10:08;;;;;;;5.82;3.67;;;;;;;;;;4991383;28;20089;-58
2021/04/12 05:12:34;;;;;;;6.65;3.20;;;;;;;;;;4989593;28;20085;-60
2021/04/12 05:15:12;;;;;;;6.80;3.50;;;;;;;;;;4994432;28;20030;-56
2021/04/12 05:17:44;;;;;;;6.18;3.85;;;;;;;;;;4994480;28;20038;-58
2021/04/12 05:20:20;;;;;;;8.95;4.20;;;;;;;;;;4993421;28;20049;-56
2021/04/12 05:22:49;;;;;;;5.55;3.08;;;;;;;;;;4990664;28;20660;-57
2021/04/12 05:25:33;;;;;;;7.18;3.38;;;;;;;;;;4990850;28;20061;-57
2021/04/12 05:28:05;;;;;;;9.10;3.38;;;;;;;;;;4991951;28;20069;-57
2021/04/12 05:30:37;;;;;;;5.85;3.15;;;;;;;;;;4992726;28;20034;-55
2021/04/12 05:33:22;;;;;;;8.43;4.20;;;;;;;;;;4993574;28;20054;-57
2021/04/12 05:36:06;;;;;;;8.93;3.40;;;;;;;;;;4993397;28;20056;-57
2021/04/12 05:38:38;;;;;;;6.20;3.75;;;;;;;;;;4994165;28;20041;-58
2021/04/12 05:41:17;;;;;;;6.45;3.80;;;;;;;;;;4993689;28;20054;-55
2021/04/12 05:43:49;;;;;;;6.32;3.90;;;;;;;;;;4992620;28;20081;-58
2021/04/12 05:46:33;;;;;;;6.35;3.78;;;;;;;;;;4991864;28;20394;-59
2021/04/12 05:49:34;;;;;;;7.07;3.40;;;;;;;;;;4953642;28;20035;-57
2021/04/12 05:52:21;;;;;;;4.88;3.10;;;;;;;;;;4939987;28;20054;-57
2021/04/12 05:55:05;;;;;;;6.82;3.60;;;;;;;;;;4955438;28;21164;-55
2021/04/12 05:57:41;;;;;;;7.88;3.40;;;;;;;;;;4956102;28;20051;-60
2021/04/12 06:00:06;;;;;;;5.72;3.47;;;;;;;;;;4953966;28;20049;-57
2021/04/12 06:02:51;;;;;;;8.70;3.50;;;;;;;;;;4954598;28;20043;-55
2021/04/12 06:05:20;;;;;;;5.03;2.88;;;;;;;;;;4954013;28;20071;-58
2021/04/12 06:07:57;;;;;;;7.20;3.13;;;;;;;;;;4954502;28;20046;-57
2021/04/12 06:10:34;;;;;;;5.53;3.08;;;;;;;;;;4952598;28;20039;-57
2021/04/12 06:13:16;;;;;;;6.57;3.20;;;;;;;;;;4953969;28;20448;-57
2021/04/12 06:15:52;;;;;;;5.80;3.35;;;;;;;;;;4956408;28;20039;-58
2021/04/12 06:18:37;;;;;;;5.50;3.08;;;;;;;;;;4952944;28;20117;-54
2021/04/12 06:21:21;;;;;;;11.75;3.10;;;;;;;;;;4948303;28;20486;-57
2021/04/12 06:24:04;;;;;;;5.00;2.92;;;;;;;;;;4950078;28;20113;-60
2021/04/12 06:26:45;;;;;;;5.25;2.70;;;;;;;;;;4963980;28;20038;-55
2021/04/12 06:29:51;;;;;;;6.15;2.75;;;;;;;;;;4954436;28;20085;-58
2021/04/12 06:32:17;;;;;;;5.25;2.90;;;;;;;;;;4970794;28;20050;-59
2021/04/12 06:34:43;;;;;;;4.93;2.65;;;;;;;;;;4974605;28;20098;-58
2021/04/12 06:37:37;;;;;;;5.43;2.67;;;;;;;;;;4964710;28;20050;-60
2021/04/12 06:40:41;;;;;;;6.03;2.90;;;;;;;;;;4937332;28;20039;-59
2021/04/12 06:43:30;;;;;;;6.65;3.47;;;;;;;;;;4935952;28;20047;-57
2021/04/12 06:46:15;;;;;;;5.45;2.72;;;;;;;;;;4934016;28;20078;-56
2021/04/12 06:48:58;;;;;;;5.70;2.83;;;;;;;;;;4936773;28;20058;-58
2021/04/12 06:51:43;;;;;;;5.80;3.05;;;;;;;;;;4936911;28;20035;-59
2021/04/12 06:54:27;;;;;;;6.22;2.85;;;;;;;;;;4936477;28;20043;-60
2021/04/12 06:57:07;;;;;;;5.00;2.83;;;;;;;;;;4936326;28;20063;-58
2021/04/12 06:59:51;;;;;;;5.80;3.03;;;;;;;;;;4938042;28;20035;-59
2021/04/12 07:02:17;;;;;;;5.20;2.63;;;;;;;;;;4952855;28;20490;-59
2021/04/12 07:05:03;;;;;;;5.00;2.72;;;;;;;;;;4971023;28;20039;-58
2021/04/12 07:07:47;;;;;;;5.05;2.72;;;;;;;;;;4959018;28;20051;-57
2021/04/12 07:10:29;;;;;;;5.40;3.10;;;;;;;;;;4970491;28;20051;-58
2021/04/12 07:12:55;;;;;;;5.15;2.97;;;;;;;;;;4953343;28;20038;-55
2021/04/12 07:15:39;;;;;;;6.10;3.00;;;;;;;;;;4972208;28;20411;-59
2021/04/12 07:18:23;;;;;;;6.63;3.00;;;;;;;;;;4983757;28;20340;-58
2021/04/12 07:21:01;;;;;;;7.13;3.20;;;;;;;;;;4961884;28;20080;-56
2021/04/12 07:23:50;;;;;;;5.13;2.92;;;;;;;;;;4995168;28;20052;-58
2021/04/12 07:26:34;;;;;;;6.75;3.00;;;;;;;;;;4967266;28;20064;-57
2021/04/12 07:29:33;;;;;;;5.03;2.70;;;;;;;;;;4992928;28;20046;-56
2021/04/12 07:32:19;;;;;;;5.22;2.63;;;;;;;;;;4991180;28;20442;-59
2021/04/12 07:35:03;;;;;;;4.55;2.55;;;;;;;;;;4984006;28;20050;-58
2021/04/12 07:37:38;;;;;;;4.43;2.17;;;;;;;;;;4984991;28;20040;-57
2021/04/12 07:40:22;;;;;;;5.57;2.10;;;;;;;;;;4990462;28;20038;-58
2021/04/12 07:43:08;;;;;;;5.25;2.08;;;;;;;;;;4989690;28;20077;-57
2021/04/12 07:45:58;;;;;;;5.10;2.70;;;;;;;;;;4988864;28;20556;-57
2021/04/12 07:48:30;;;;;;;4.72;2.60;;;;;;;;;;4988735;28;20500;-58
2021/04/12 07:51:14;;;;;;;4.70;2.47;;;;;;;;;;4988575;28;20402;-58
2021/04/12 07:53:49;;;;;;;6.68;2.90;;;;;;;;;;4987394;28;20050;-58
2021/04/12 07:56:41;;;;;;;4.18;2.20;;;;;;;;;;4989017;28;20041;-57
2021/04/12 07:59:25;;;;;;;7.25;2.58;;;;;;;;;;4968301;28;20050;-56
2021/04/12 08:01:57;;;;;;;4.93;2.45;;;;;;;;;;4989728;28;20049;-55
2021/04/12 08:04:32;;;;;;;5.32;2.97;;;;;;;;;;4981471;28;20046;-58
2021/04/12 08:07:17;;;;;;;5.50;2.90;;;;;;;;;;4983466;28;20047;-57
2021/04/12 08:09:45;;;;;;;4.95;2.47;;;;;;;;;;4989405;28;20066;-57
2021/04/12 08:12:11;;;;;;;10.55;3.10;;;;;;;;;;4989064;28;20568;-58
2021/04/12 08:14:37;;;;;;;4.72;2.65;;;;;;;;;;4990381;28;20049;-56
2021/04/12 08:17:15;;;;;;;4.78;2.67;;;;;;;;;;4991188;28;20403;-58
2021/04/12 08:19:44;;;;;;;4.70;2.75;;;;;;;;;;4988371;28;20038;-57
2021/04/12 08:22:24;;;;;;;4.78;2.72;;;;;;;;;;4988498;28;20657;-57
2021/04/12 08:24:59;;;;;;;5.47;2.67;;;;;;;;;;4989363;28;20088;-59
2021/04/12 08:27:24;;;;;;;4.60;2.50;;;;;;;;;;4987106;28;20407;-58
2021/04/12 08:30:09;;;;;;;5.57;2.80;;;;;;;;;;4986398;28;20029;-57
2021/04/12 08:32:53;;;;;;;5.28;2.88;;;;;;;;;;4988587;28;20038;-59
2021/04/12 08:35:24;;;;;;;5.20;2.85;;;;;;;;;;4989200;28;20135;-55
2021/04/12 08:38:12;;;;;;;4.80;2.30;;;;;;;;;;4987207;28;20056;-58
2021/04/12 08:40:56;;;;;;;6.85;2.65;;;;;;;;;;4984515;28;20055;-54
2021/04/12 08:43:22;;;;;;;4.78;2.80;;;;;;;;;;4989207;28;20038;-55
2021/04/12 08:45:59;;;;;;;5.93;2.92;;;;;;;;;;4987376;28;20030;-53
2021/04/12 08:48:43;;;;;;;6.57;3.13;;;;;;;;;;4988189;28;20050;-56
2021/04/12 08:51:27;;;;;;;4.88;2.72;;;;;;;;;;4988568;28;20066;-53
2021/04/12 08:54:12;;;;;;;5.22;2.63;;;;;;;;;;4988159;28;20538;-54
2021/04/12 08:56:37;;;;;;;7.22;3.30;;;;;;;;;;4986553;28;20100;-54
2021/04/12 08:59:20;;;;;;;8.60;3.20;;;;;;;;;;4987518;28;20045;-55
2021/04/12 09:01:51;;;;;;;8.05;2.70;;;;;;;;;;4986111;28;20040;-53
2021/04/12 09:04:20;;;;;;;6.53;3.38;;;;;;;;;;4986233;28;20045;-53
2021/04/12 09:06:46;;;;;;;5.35;2.60;;;;;;;;;;4984772;28;20042;-54
2021/04/12 09:09:15;;;;;;;6.82;3.42;;;;;;;;;;4986929;28;20034;-53
2021/04/12 09:12:17;;;;;;;6.15;3.08;;;;;;;;;;4984148;28;20045;-52
2021/04/12 09:15:00;;;;;;;5.07;2.90;;;;;;;;;;4987098;28;20085;-55
2021/04/12 09:17:26;;;;;;;;;;;;;;;;;;4987275;28;20445;-53
2021/04/12 09:20:15;;;;;;;6.68;2.67;;;;;;;;;;4984956;28;19964;-55
2021/04/12 09:23:04;;;;;;;5.57;3.17;;;;;;;;;;4973530;28;20042;-52
2021/04/12 09:25:48;;;;;;;5.70;3.05;;;;;;;;;;4981574;28;20119;-54
2021/04/12 09:28:14;;;;;;;6.28;3.05;;;;;;;;;;4991013;28;20071;-53
2021/04/12 09:30:58;;;;;;;7.38;3.22;;;;;;;;;;4988477;28;20070;-54
2021/04/12 09:33:37;;;;;;;5.50;2.75;;;;;;;;;;4987586;28;20034;-52
2021/04/12 09:36:15;;;;;;;6.63;3.22;;;;;;;;;;4991740;28;20356;-53
2021/04/12 09:38:56;;;;;;;6.00;3.20;;;;;;;;;;4989891;28;20756;-53
2021/04/12 09:41:34;;;;;;;5.65;2.85;;;;;;;;;;4987153;28;20598;-57
2021/04/12 09:44:18;;;;;;;5.65;2.97;;;;;;;;;;4991099;28;20470;-52
2021/04/12 09:46:53;;;;;;;7.55;3.13;;;;;;;;;;4988864;28;20080;-54
2021/04/12 09:49:37;;;;;;;6.13;3.53;;;;;;;;;;4990091;28;20046;-52
2021/04/12 09:52:22;;;;;;;6.38;3.17;;;;;;;;;;4989085;28;20030;-53
2021/04/12 09:55:05;;;;;;;6.30;3.28;;;;;;;;;;4988143;28;20046;-51
2021/04/12 09:57:31;;;;;;;;;;;;;;;;;;4989996;28;20075;-51
2021/04/12 09:59:59;;;;;;;5.95;3.17;;;;;;;;;;4988536;28;20577;-53
2021/04/12 10:02:33;;;;;;;6.40;3.13;;;;;;;;;;4989080;28;20061;-53
2021/04/12 10:05:17;;;;;;;9.65;3.75;;;;;;;;;;4987560;28;20042;-53
2021/04/12 10:07:58;;;;;;;15.07;3.63;;;;;;;;;;4988820;28;20900;-53
2021/04/12 10:10:50;;;;;;;5.93;3.33;;;;;;;;;;4988621;28;20053;-55
2021/04/12 10:13:25;;;;;;;9.05;3.38;;;;;;;;;;4987657;28;20034;-51
2021/04/12 10:16:03;;;;;;;7.40;3.20;;;;;;;;;;4989509;28;20046;-52
2021/04/12 10:18:41;;;;;;;6.45;3.65;;;;;;;;;;4986990;28;20037;-52
2021/04/12 10:21:10;;;;;;;9.68;3.58;;;;;;;;;;4989481;28;20068;-52
2021/04/12 10:23:38;;;;;;;8.52;3.90;;;;;;;;;;4990552;28;20379;-51
2021/04/12 10:26:30;;;;;;;8.07;4.00;;;;;;;;;;4990693;28;20065;-52
2021/04/12 10:29:02;;;;;;;10.13;3.92;;;;;;;;;;4985678;28;20387;-52
2021/04/12 10:31:30;;;;;;;9.02;3.97;;;;;;;;;;4960020;28;20053;-52
2021/04/12 10:34:21;;;;;;;7.90;4.10;;;;;;;;;;4989248;28;20413;-52
2021/04/12 10:36:58;;;;;;;7.43;3.67;;;;;;;;;;4988590;28;20075;-52
2021/04/12 10:39:36;;;;;;;9.30;4.38;;;;;;;;;;4990728;28;20056;-51
2021/04/12 10:42:06;;;;;;;7.35;3.70;;;;;;;;;;4992880;28;20054;-51
2021/04/12 10:44:35;;;;;;;7.90;4.32;;;;;;;;;;4991986;28;20088;-54
2021/04/12 10:47:19;;;;;;;9.63;5.05;;;;;;;;;;4987341;28;20128;-55
2021/04/12 10:49:48;;;;;;;10.38;4.20;;;;;;;;;;4991520;28;20810;-54
2021/04/12 10:52:23;;;;;;;8.27;4.55;;;;;;;;;;4991673;28;20308;-53
2021/04/12 10:55:07;;;;;;;9.25;4.88;;;;;;;;;;4989828;28;20042;-53
2021/04/12 10:57:35;;;;;;;13.30;4.95;;;;;;;;;;4990415;28;20066;-54
2021/04/12 11:00:07;;;;;;;10.02;4.68;;;;;;;;;;4987722;28;20074;-54
2021/04/12 11:02:33;;;;;;;10.18;5.03;;;;;;;;;;4988705;28;20502;-53
2021/04/12 11:05:02;;;;;;;8.68;4.75;;;;;;;;;;4988811;28;20061;-53
2021/04/12 11:07:46;;;;;;;8.80;4.32;;;;;;;;;;4988565;28;20046;-54
2021/04/12 11:10:25;;;;;;;10.75;4.75;;;;;;;;;;4990529;28;20049;-53
2021/04/12 11:12:51;;;;;;;11.40;5.07;;;;;;;;;;4988888;28;20046;-51
2021/04/12 11:15:52;;;;;;;12.95;5.38;;;;;;;;;;4987547;28;20045;-53
2021/04/12 11:18:33;;;;;;;9.55;5.10;;;;;;;;;;4900057;29;20134;-51
2021/04/12 11:21:01;;;;;;;11.57;5.50;;;;;;;;;;4978706;28;20038;-53
2021/04/12 11:23:46;;;;;;;13.05;5.10;;;;;;;;;;4988440;28;20137;-54
2021/04/12 11:26:18;;;;;;;11.85;5.10;;;;;;;;;;4986945;28;20049;-54
2021/04/12 11:28:44;;;;;;;9.85;5.05;;;;;;;;;;4988189;28;20050;-55
2021/04/12 11:31:09;;;;;;;9.18;4.97;;;;;;;;;;4989633;28;20092;-54
2021/04/12 11:33:47;;;;;;;10.13;5.30;;;;;;;;;;4975205;28;20414;-53
2021/04/12 11:36:31;;;;;;;10.05;4.05;;;;;;;;;;4988116;28;20089;-51
2021/04/12 11:39:15;;;;;;;10.10;4.97;;;;;;;;;;4988440;28;20070;-53
2021/04/12 11:41:50;;;;;;;7.68;3.85;;;;;;;;;;4988861;28;20069;-52
2021/04/12 11:44:36;;;;;;;11.00;5.18;;;;;;;;;;4988859;28;20042;-54
2021/04/12 11:47:21;;;;;;;10.50;4.60;;;;;;;;;;4984801;28;20050;-52
2021/04/12 11:49:55;;;;;;;9.45;4.60;;;;;;;;;;4986113;28;20528;-53
2021/04/12 11:52:24;;;;;;;8.27;3.88;;;;;;;;;;4966248;28;20046;-53
2021/04/12 11:54:55;;;;;;;14.13;5.45;;;;;;;;;;4987277;28;20041;-55
2021/04/12 11:57:21;;;;;;;8.52;3.88;;;;;;;;;;4985564;28;20042;-53
2021/04/12 12:00:05;;;;;;;11.35;4.47;;;;;;;;;;4977740;28;20081;-51
2021/04/12 12:02:31;;;;;;;8.63;4.18;;;;;;;;;;4987526;28;20034;-53
2021/04/12 12:05:05;;;;;;;7.15;3.55;;;;;;;;;;4988727;28;20046;-51
2021/04/12 12:07:52;;;;;;;9.95;3.90;;;;;;;;;;4986331;28;20495;-52
2021/04/12 12:10:21;;;;;;;7.55;3.83;;;;;;;;;;4986682;28;20045;-53
2021/04/12 12:12:46;;;;;;;7.53;3.45;;;;;;;;;;4987339;28;20038;-53
2021/04/12 12:15:28;;;;;;;8.40;4.30;;;;;;;;;;4987845;28;20034;-51
2021/04/12 12:18:03;;;;;;;11.15;4.85;;;;;;;;;;4988729;28;20050;-52
2021/04/12 12:20:41;;;;;;;8.73;3.72;;;;;;;;;;4987826;28;20048;-54
2021/04/12 12:23:39;;;;;;;11.70;4.25;;;;;;;;;;4985875;28;20050;-55
2021/04/12 12:26:07;;;;;;;4.75;2.30;;;;;;;;;;4939795;28;20052;-55
2021/04/12 12:28:52;;;;;;;7.53;3.28;;;;;;;;;;4986880;28;20046;-52
2021/04/12 12:31:35;;;;;;;11.75;4.38;;;;;;;;;;4986665;28;20046;-53
2021/04/12 12:34:19;;;;;;;8.32;3.65;;;;;;;;;;4986820;28;20538;-52
2021/04/12 12:37:03;;;;;;;6.05;2.67;;;;;;;;;;4986514;28;20147;-54
2021/04/12 12:39:29;;;;;;;;;;;;;;;;;;4987677;28;20044;-54
2021/04/12 12:41:59;;;;;;;8.73;3.67;;;;;;;;;;4988463;28;19929;-59
2021/04/12 12:44:26;;;;;;;6.28;2.83;;;;;;;;;;4966164;28;20050;-50
2021/04/12 12:46:53;;;;;;;8.95;3.85;;;;;;;;;;4986210;28;20053;-52
2021/04/12 12:49:27;;;;;;;8.68;2.83;;;;;;;;;;4988313;28;20038;-58
2021/04/12 12:52:08;;;;;;;6.70;3.38;;;;;;;;;;4986424;28;20132;-51
2021/04/12 12:54:34;;;;;;;7.28;3.58;;;;;;;;;;4987047;28;20085;-51
2021/04/12 12:57:02;;;;;;;7.80;3.10;;;;;;;;;;4987182;28;20050;-51
2021/04/12 12:59:29;;;;;;;5.85;2.88;;;;;;;;;;4988972;28;20026;-51
2021/04/12 13:01:55;;;;;;;8.27;3.10;;;;;;;;;;4992434;28;20042;-53
2021/04/12 13:04:21;;;;;;;7.22;2.50;;;;;;;;;;4991366;28;20077;-51
2021/04/12 13:06:50;;;;;;;5.00;2.38;;;;;;;;;;4992168;28;20129;-54
2021/04/12 13:09:24;;;;;;;9.48;3.00;;;;;;;;;;4990590;28;20651;-51
2021/04/12 13:12:13;;;;;;;8.07;2.72;;;;;;;;;;4989591;28;20049;-54
2021/04/12 13:14:41;;;;;;;5.10;2.10;;;;;;;;;;4979992;28;20042;-51
2021/04/12 13:17:26;;;;;;;8.45;2.30;;;;;;;;;;4971068;28;20768;-52
2021/04/12 13:19:54;;;;;;;5.97;2.80;;;;;;;;;;4992146;28;20072;-54
2021/04/12 13:22:23;;;;;;;13.88;3.65;;;;;;;;;;4987613;28;20564;-53
2021/04/12 13:24:50;;;;;;;7.18;3.03;;;;;;;;;;4989336;28;20126;-50
2021/04/12 13:27:23;;;;;;;8.60;3.53;;;;;;;;;;4989950;28;20536;-54
2021/04/12 13:29:52;;;;;;;9.55;3.58;;;;;;;;;;4990731;28;20144;-51
2021/04/12 13:32:23;;;;;;;7.53;2.67;;;;;;;;;;4977737;28;20049;-52
2021/04/12 13:34:49;;;;;;;12.23;3.95;;;;;;;;;;4992141;28;20042;-51
2021/04/12 13:37:20;;;;;;;13.90;4.55;;;;;;;;;;4990118;28;20049;-52
2021/04/12 13:39:49;;;;;;;9.55;3.28;;;;;;;;;;4991306;28;21996;-52
2021/04/12 13:42:24;;;;;;;5.55;3.03;;;;;;;;;;4990858;28;20050;-53
2021/04/12 13:44:55;;;;;;;8.90;3.97;;;;;;;;;;4991910;28;20037;-51
2021/04/12 13:47:26;;;;;;;15.07;3.85;;;;;;;;;;4990930;28;20038;-51
2021/04/12 13:49:55;;;;;;;16.35;4.80;;;;;;;;;;4990892;28;20062;-53
2021/04/12 13:52:24;;;;;;;12.93;4.80;;;;;;;;;;4989517;28;20474;-52
2021/04/12 13:54:50;;;;;;;7.43;3.08;;;;;;;;;;4991992;28;20526;-51
2021/04/12 13:57:20;;;;;;;6.43;2.78;;;;;;;;;;4975680;28;20049;-51
2021/04/12 13:59:57;;;;;;;8.25;3.70;;;;;;;;;;4989641;28;20042;-51
2021/04/12 14:02:22;;;;;;;8.18;3.22;;;;;;;;;;4989912;28;20048;-54
2021/04/12 14:04:52;;;;;;;7.97;3.30;;;;;;;;;;4991025;28;20034;-53
2021/04/12 14:07:20;;;;;;;5.95;2.17;;;;;;;;;;4988597;28;20680;-54
2021/04/12 14:09:52;;;;;;;7.07;3.33;;;;;;;;;;4992505;28;20121;-52
2021/04/12 14:12:25;;;;;;;7.55;3.67;;;;;;;;;;4992999;28;20042;-50
2021/04/12 14:15:00;;;;;;;9.83;3.43;;;;;;;;;;4992928;28;20638;-51
2021/04/12 14:17:32;;;;;;;6.32;2.33;;;;;;;;;;4977559;28;20355;-54
2021/04/12 14:20:13;;;;;;;9.13;4.07;;;;;;;;;;4990435;28;20069;-55
2021/04/12 14:22:45;;;;;;;7.15;3.67;;;;;;;;;;4990422;28;20045;-51
2021/04/12 14:25:15;;;;;;;9.60;4.32;;;;;;;;;;4991734;28;20034;-52
2021/04/12 14:27:42;;;;;;;11.85;4.28;;;;;;;;;;4990430;28;20046;-54
2021/04/12 14:30:12;;;;;;;5.30;2.90;;;;;;;;;;4991431;28;20046;-54
2021/04/12 14:32:41;;;;;;;11.68;4.75;;;;;;;;;;4987260;28;20042;-54
2021/04/12 14:35:16;;;;;;;7.80;4.20;;;;;;;;;;4988733;28;20048;-53
2021/04/12 14:37:42;;;;;;;31.13;5.60;;;;;;;;;;4987651;28;20039;-52
2021/04/12 14:40:23;;;;;;;10.00;4.10;;;;;;;;;;4990420;28;20046;-55
2021/04/12 14:42:49;;;;;;;7.43;3.95;;;;;;;;;;4977985;28;20042;-52
2021/04/12 14:45:18;;;;;;;8.32;4.43;;;;;;;;;;4977917;28;20034;-54
2021/04/12 14:47:49;;;;;;;6.38;2.90;;;;;;;;;;4977833;28;20137;-54
2021/04/12 14:50:17;;;;;;;10.73;4.07;;;;;;;;;;4978847;28;20030;-53
2021/04/12 14:53:00;;;;;;;7.25;2.95;;;;;;;;;;4977281;28;20034;-53
2021/04/12 14:55:29;;;;;;;10.97;3.67;;;;;;;;;;4977594;28;20042;-54
2021/04/12 14:58:07;;;;;;;9.15;3.88;;;;;;;;;;4977150;28;20303;-54
2021/04/12 15:00:53;;;;;;;8.30;4.28;;;;;;;;;;4974441;28;20053;-52
2021/04/12 15:03:32;;;;;;;7.95;3.78;;;;;;;;;;4965398;28;20042;-52
2021/04/12 15:05:58;;;;;;;8.13;4.43;;;;;;;;;;4964911;28;20046;-50
2021/04/12 15:08:48;;;;;;;11.05;5.32;;;;;;;;;;4958422;28;20046;-51
2021/04/12 15:11:26;;;;;;;8.57;4.13;;;;;;;;;;4972419;28;20037;-53
2021/04/12 15:14:02;;;;;;;8.73;3.92;;;;;;;;;;4978229;28;20646;-52
2021/04/12 15:16:50;;;;;;;12.95;6.30;;;;;;;;;;4979444;28;20164;-53
2021/04/12 15:19:35;;;;;;;9.55;4.28;;;;;;;;;;4980031;28;20039;-54
2021/04/12 15:22:14;;;;;;;8.48;4.43;;;;;;;;;;4972345;28;20513;-52
2021/04/12 15:24:48;;;;;;;6.00;3.65;;;;;;;;;;4976380;28;20458;-51
2021/04/12 15:27:25;;;;;;;7.38;4.07;;;;;;;;;;4964573;28;20050;-50
2021/04/12 15:30:07;;;;;;;16.02;5.65;;;;;;;;;;4958568;28;20126;-53
2021/04/12 15:32:35;;;;;;;8.90;5.07;;;;;;;;;;4944994;28;20053;-50
2021/04/12 15:35:04;;;;;;;10.23;4.97;;;;;;;;;;4974754;28;20106;-51
2021/04/12 15:37:49;;;;;;;11.88;6.43;;;;;;;;;;4965145;28;20045;-53